Flight Track Log - Related Links

Times and Time Zones

All times are in EDT time to prevent confusion due to time zone crossing. See the APC51 flight status page for this flight to view local times or setup timezone preferences in your user account.

Time Position Orientation Groundspeed Altitude Reporting Facility
EDT Latitude Longitude Course Direction KTS MPH feet Rate Location/Type
Fri 05:08:16 AM 47.6178 -117.5744 273° West 91 105 3,600  Level Seattle Center
Fri 05:09:16 AM 47.6189 -117.6114 273° West 90 104 4,800 1,200 Climbing Seattle Center
Fri 05:10:16 AM 47.6183 -117.6547 269° West 103 119 6,000 1,150 Climbing Seattle Center
Fri 05:11:16 AM 47.6178 -117.7008 269° West 110 127 7,100 1,100 Climbing Seattle Center
Fri 05:12:16 AM 47.6175 -117.7481 270° West 115 132 8,200 1,150 Climbing Seattle Center
Fri 05:13:16 AM 47.6181 -117.7975 271° West 120 138 9,400 1,100 Climbing Seattle Center
Fri 05:14:16 AM 47.6178 -117.8497 270° West 127 146 10,400 600 Climbing Seattle Center
Fri 05:15:16 AM 47.6189 -117.9144 271° West 158 182 10,600 150 Climbing Seattle Center
Fri 05:16:16 AM 47.6183 -117.9844 269° West 167 192 10,700 50 Climbing Seattle Center
Fri 05:17:16 AM 47.6181 -118.0519 270° West 163 188 10,700  Level Seattle Center
Fri 05:18:16 AM 47.6181 -118.1206 270° West 166 191 10,700  Level Seattle Center
Fri 05:19:16 AM 47.6172 -118.1919 269° West 173 199 10,700  Level Seattle Center
Fri 05:20:17 AM 47.6167 -118.2650 269° West 177 204 10,700  Level Seattle Center
Fri 05:21:17 AM 47.6175 -118.3378 271° West 179 206 10,700  Level Seattle Center
Fri 05:22:17 AM 47.6164 -118.4100 269° West 177 204 10,700  Level Seattle Center
Fri 05:23:17 AM 47.6172 -118.4822 271° West 176 203 10,700  Level Seattle Center
Fri 05:24:17 AM 47.6167 -118.5544 269° West 177 204 10,700  Level Seattle Center
Fri 05:25:17 AM 47.6164 -118.6239 270° West 170 196 10,700  Level Seattle Center
Fri 05:26:17 AM 47.6156 -118.6956 269° West 176 203 10,700  Level Seattle Center
Fri 05:27:17 AM 47.6144 -118.7661 269° West 174 200 10,700  Level Seattle Center
Fri 05:28:17 AM 47.6136 -118.8383 269° West 177 204 10,700  Level Seattle Center
Fri 05:29:17 AM 47.6139 -118.9114 270° West 180 207 10,700  Level Seattle Center
Fri 05:30:17 AM 47.6133 -118.9847 269° West 177 204 10,700  Level Seattle Center
Fri 05:31:17 AM 47.6125 -119.0569 269° West 179 206 10,700  Level Seattle Center
Fri 05:32:17 AM 47.6111 -119.1297 268° West 177 204 10,700  Level Seattle Center
Fri 05:33:17 AM 47.6106 -119.2033 269° West 178 205 10,700  Level Seattle Center
Fri 05:34:17 AM 47.6097 -119.2761 269° West 179 206 10,700  Level Seattle Center
Fri 05:35:17 AM 47.6083 -119.3489 268° West 177 204 10,700  Level Seattle Center
Fri 05:36:17 AM 47.6075 -119.4197 269° West 172 198 10,700  Level Seattle Center
Fri 05:37:17 AM 47.6064 -119.4900 269° West 171 197 10,700  Level Seattle Center
Fri 05:38:17 AM 47.6056 -119.5578 269° West 167 192 10,700  Level Seattle Center
Fri 05:39:17 AM 47.6044 -119.6264 269° West 169 194 10,700  Level Seattle Center
Fri 05:40:17 AM 47.6031 -119.6961 268° West 169 194 10,700  Level Seattle Center
Fri 05:41:17 AM 47.6033 -119.7672 270° West 174 200 10,700  Level Seattle Center
Fri 05:42:17 AM 47.6006 -119.8378 267° West 171 197 10,700  Level Seattle Center
Fri 05:43:17 AM 47.6003 -119.9086 270° West 172 198 10,700  Level Seattle Center
Fri 05:44:18 AM 47.5972 -119.9792 266° West 172 198 10,700  Level Seattle Center
Fri 05:45:18 AM 47.5981 -120.0472 271° West 167 192 10,700  Level Seattle Center
Fri 05:46:18 AM 47.5933 -120.1169 264° West 170 196 10,700  Level Seattle Center
Fri 05:47:18 AM 47.5956 -120.1867 273° West 170 196 10,700  Level Seattle Center
Fri 05:48:18 AM 47.5917 -120.2536 265° West 163 188 10,700  Level Seattle Center
Fri 05:49:18 AM 47.5903 -120.3211 268° West 165 190 10,700  Level Seattle Center
Fri 05:50:18 AM 47.5900 -120.3889 270° West 167 192 10,700  Level Seattle Center
Fri 05:51:18 AM 47.5881 -120.4567 268° West 165 190 10,700  Level Seattle Center
Fri 05:52:18 AM 47.5861 -120.5242 268° West 165 190 10,700  Level Seattle Center
Fri 05:53:18 AM 47.5844 -120.5919 268° West 165 190 10,700  Level Seattle Center
Fri 05:54:18 AM 47.5828 -120.6594 268° West 165 190 10,700  Level Seattle Center
Fri 05:55:18 AM 47.5814 -120.7350 268° West 169 194 10,700  Level Seattle Center
Fri 05:56:18 AM 47.5811 -120.7983 270° West 169 194 10,700  Level Seattle Center
Fri 05:57:18 AM 47.5786 -120.8656 267° West 165 190 10,700  Level Seattle Center
Fri 05:58:18 AM 47.5764 -120.9336 267° West 166 191 10,700  Level Seattle Center
Fri 05:59:18 AM 47.5742 -121.0017 267° West 168 193 10,700  Level Seattle Center
Fri 06:00:21 AM 47.5728 -121.0717 268° West 171 197 10,700  Level Seattle Center
Fri 06:01:21 AM 47.5714 -121.1397 268° West 168 193 10,700  Level Seattle Center
Fri 06:01:46 AM 47.5692 -121.1756 265° West 168 193 10,700  Level Seattle Center
Fri 06:02:21 AM 47.5678 -121.2086 266° West 171 197 10,700  Level Seattle Center
Fri 06:02:52 AM 47.5661 -121.2567 267° West 170 196 10,700  Level Seattle Center
Fri 06:03:22 AM 47.5656 -121.2886 269° West 171 197 10,700  Level Seattle Center
Fri 06:03:53 AM 47.5644 -121.3269 268° West 170 196 10,700  Level Seattle Center
Fri 06:04:22 AM 47.5642 -121.3581 269° West 171 197 10,700  Level Seattle Center
Fri 06:04:54 AM 47.5619 -121.3942 265° West 170 196 10,700  Level Seattle Center
Fri 06:05:22 AM 47.5614 -121.4281 269° West 170 196 10,700  Level Seattle Center
Fri 06:05:54 AM 47.5603 -121.4644 267° West 170 196 10,700  Level Seattle Center
Fri 06:06:22 AM 47.5603 -121.4975 270° West 171 197 10,700  Level Seattle Center
Fri 06:06:55 AM 47.5586 -121.5347 266° West 171 197 10,700  Level Seattle Center
Fri 06:07:22 AM 47.5578 -121.5678 268° West 171 197 10,700  Level Seattle Center
Fri 06:07:56 AM 47.5542 -121.6031 261° West 169 194 10,700 -500 Level Seattle Center
Fri 06:08:22 AM 47.5539 -121.6386 269° West 175 201 10,200 -1,091 Descending Seattle Center
Fri 06:09:02 AM 47.5528 -121.6928 268° West 190 219 9,500 -900 Descending Seattle Center
Fri 06:09:22 AM 47.5522 -121.7178 268° West 193 222 9,300 -1,082 Descending Seattle Center
Fri 06:10:03 AM 47.5486 -121.7708 264° West 197 227 8,400 -1,100 Descending Seattle Center
Fri 06:10:22 AM 47.5475 -121.7953 266° West 191 220 8,200 -1,100 Descending Seattle Center
Fri 06:11:03 AM 47.5383 -121.8525 257° West 198 228 7,300 -1,400 Descending Seattle Center
Fri 06:11:22 AM 47.5336 -121.8761 254° West 203 234 6,800 -1,475 Descending Seattle Center
Fri 06:12:04 AM 47.5156 -121.9278 243° Southwest 211 243 5,800 -1,300 Descending Seattle Center
Fri 06:12:22 AM 47.5056 -121.9511 238° Southwest 210 242 5,500 -1,082 Descending Seattle Center
Fri 06:13:05 AM 47.4825 -121.9986 234° Southwest 212 244 4,700 -1,300 Descending Seattle Center
Fri 06:13:22 AM 47.4725 -122.0200 235° Southwest 207 238 4,200 -1,600 Descending Seattle Center
Fri 06:14:05 AM 47.4675 -122.0794 263° West 207 238 3,100 -1,700 Descending Seattle Center
Fri 06:14:22 AM 47.4664 -122.1044 266° West 202 232 2,500 -1,082 Descending Seattle Center
Fri 06:15:06 AM 47.4656 -122.1592 269° West 190 219 2,000 -700 Descending Seattle Center
Fri 06:15:22 AM 47.4669 -122.1808 275° West 185 213 1,800 -200 Descending Seattle Center
Fri 06:16:06 AM 47.4661 -122.2311 269° West 154 177 1,800 -100 Level Seattle Center
Fri 06:16:22 AM 47.4661 -122.2419 270° West 146 168 1,700 -885 Descending Seattle Center
Fri 06:17:07 AM 47.4869 -122.2686 319° Northwest 129 148 900 -1,100 Descending Seattle Center
Fri 06:17:22 AM 47.4947 -122.2736 337° Northwest 134 154 600 -632 Descending Seattle Center
Fri 06:18:23 AM 47.5264 -122.3000 331° Northwest 130 150 100 -492 Descending Seattle Center
Fri 06:20:00 AM 47.5167 -122.3000 260° West  Level FlightAware Approximate

Login

Don't have an account? Register now (free) for customized features, flight alerts, and more!